EST,Max TemperatureF,Mean TemperatureF,Min TemperatureF,Max Dew PointF,MeanDew PointF,Min DewpointF,Max Humidity, Mean Humidity, Min Humidity, Max Sea Level PressureIn, Mean Sea Level PressureIn, Min Sea Level PressureIn, Max VisibilityMiles, Mean VisibilityMiles, Min VisibilityMiles, Max Wind SpeedMPH, Mean Wind SpeedMPH, Max Gust SpeedMPH,PrecipitationIn, CloudCover, Events, WindDirDegrees
2012-12-1,72,64,56,59,58,54,93,77,61,30.34,30.29,30.26,10,10,9,16,9,23,0.00,5,,39
2012-12-2,74,65,55,60,59,55,100,81,61,30.35,30.30,30.27,10,8,0,13,5,25,0.00,0,Fog,53
2012-12-3,71,64,57,62,58,55,100,83,66,30.34,30.29,30.26,10,6,0,10,3,17,0.00,6,Fog,152
2012-12-4,74,66,57,61,58,55,100,77,53,30.35,30.28,30.25,10,9,1,7,2,15,0.00,5,,113
2012-12-5,74,63,52,60,54,51,100,79,57,30.25,30.20,30.11,10,4,0,12,4,15,0.00,2,Fog,76
2012-12-6,67,64,60,61,58,56,90,79,68,30.13,30.09,30.06,10,9,7,21,11,28,T,7,Rain,42
2012-12-7,65,59,53,56,54,52,100,89,78,30.08,30.03,29.99,10,6,0,18,6,25,0.00,6,Fog,12
2012-12-8,63,58,52,61,56,51,100,92,84,30.10,30.06,30.02,10,5,0,9,2,12,0.00,7,Fog,129
2012-12-9,73,65,56,65,60,55,100,89,78,30.13,30.07,30.01,10,6,0,10,2,,T,6,Fog,8
2012-12-10,78,70,61,66,63,56,100,75,50,30.01,29.93,29.82,10,5,0,13,7,28,0.00,4,Fog,210
2012-12-11,72,67,62,66,64,58,100,92,84,30.07,29.95,29.83,10,9,2,10,4,15,0.13,7,Rain,199
2012-12-12,63,59,55,58,55,51,100,92,84,30.15,30.11,30.06,10,6,1,17,8,28,0.86,8,Rain-Thunderstorm,357
2012-12-13,57,52,46,54,47,43,96,91,86,30.31,30.23,30.12,10,6,2,17,10,22,0.01,8,Rain,352
2012-12-14,59,54,49,49,47,45,93,80,67,30.35,30.26,30.20,10,9,4,16,8,26,0.00,6,,6
2012-12-15,63,59,54,58,54,45,100,81,62,30.21,30.15,30.09,10,8,0,10,5,18,T,8,Fog-Rain,31
2012-12-16,72,65,57,63,59,55,100,87,73,30.10,30.04,29.95,10,6,0,9,3,12,0.00,3,Fog,161
2012-12-17,74,68,61,64,61,58,93,81,68,29.94,29.88,29.81,10,10,2,18,6,26,0.04,6,Rain,197
2012-12-18,70,59,48,63,52,34,100,65,29,30.04,29.90,29.82,10,10,10,18,7,26,0.00,3,,253
2012-12-19,66,53,40,50,43,36,89,63,37,30.14,30.10,30.05,10,10,10,10,2,18,0.00,0,,147
2012-12-20,69,58,47,64,53,44,100,87,73,30.11,29.98,29.78,10,8,1,22,8,33,0.15,4,Rain,183
2012-12-21,58,51,43,41,26,19,59,43,26,30.13,30.02,29.90,10,10,10,23,13,33,0.00,0,,274
2012-12-22,57,47,36,30,23,18,54,39,24,30.26,30.21,30.14,10,10,10,15,8,21,0.00,0,,272
2012-12-23,61,47,32,41,31,22,89,57,24,30.28,30.20,30.16,10,10,10,7,4,26,0.00,0,,247
2012-12-24,65,55,45,56,46,35,93,68,43,30.14,30.04,29.95,10,10,10,13,4,17,T,3,Rain,198
2012-12-25,65,58,51,59,56,52,100,90,80,30.04,29.98,29.88,10,10,7,12,4,16,T,5,Rain,101
2012-12-26,70,56,42,64,52,32,93,73,52,29.96,29.77,29.65,10,9,1,26,13,37,0.11,2,Rain,226
2012-12-27,57,48,38,39,34,31,82,63,43,30.10,30.04,29.96,10,10,10,17,7,26,0.00,0,,280
2012-12-28,57,46,35,55,42,33,100,82,63,30.15,30.06,29.91,10,9,4,7,2,21,T,1,Rain,88
2012-12-29,67,55,43,65,52,29,100,79,58,30.17,29.90,29.76,10,9,2,21,11,28,0.50,6,Rain,265
2012-12-30,53,44,35,34,29,25,85,60,35,30.43,30.35,30.18,10,10,10,21,6,28,0.00,0,,344
2012-12-31,60,48,35,48,41,32,100,79,57,30.42,30.32,30.23,10,8,2,12,4,14,0.00,1,,28